Time;durP1;ratioP1;P1;durP2;ratioP2;P2;SDS_P1;SDS_P2;PMS_P1;PMS_P2;Temp;Humidity;BMP_temperature;BMP_pressure;BME280_temperature;BME280_humidity;BME280_pressure;Samples;Min_cycle;Max_cycle;Signal;HPM_P1;HPM_P2
2021/08/04 00:00:37;;;;;;;2.03;1.93;;;14.50;99.90;;;;;;4995085;28;20506;-71
2021/08/04 00:03:03;;;;;;;2.07;1.97;;;14.50;99.90;;;;;;4995067;28;20167;-71
2021/08/04 00:05:29;;;;;;;2.07;1.97;;;14.60;99.90;;;;;;4994999;28;20522;-70
2021/08/04 00:07:54;;;;;;;2.07;1.97;;;14.60;99.90;;;;;;4995035;28;20226;-71
2021/08/04 00:10:21;;;;;;;2.20;2.10;;;14.70;99.90;;;;;;4994945;28;20594;-71
2021/08/04 00:12:47;;;;;;;1.90;1.80;;;14.70;99.90;;;;;;4994949;28;20484;-71
2021/08/04 00:15:14;;;;;;;2.30;1.70;;;14.70;99.90;;;;;;4994842;28;20406;-71
2021/08/04 00:17:41;;;;;;;1.90;1.80;;;14.80;99.90;;;;;;4994965;28;20406;-70
2021/08/04 00:20:08;;;;;;;2.10;2.00;;;14.80;99.90;;;;;;4994817;28;20406;-71
2021/08/04 00:22:34;;;;;;;2.77;2.60;;;14.80;99.90;;;;;;4994660;28;20406;-71
2021/08/04 00:25:00;;;;;;;2.40;2.30;;;14.80;99.90;;;;;;4994559;28;20458;-70
2021/08/04 00:27:27;;;;;;;2.13;2.03;;;14.80;99.90;;;;;;4994693;28;20403;-71
2021/08/04 00:29:54;;;;;;;2.20;2.10;;;14.90;99.90;;;;;;4994637;28;20394;-71
2021/08/04 00:32:20;;;;;;;1.73;1.63;;;14.90;99.90;;;;;;4994625;28;20870;-71
2021/08/04 00:34:47;;;;;;;1.97;1.87;;;15.00;99.90;;;;;;4994109;28;20409;-70
2021/08/04 00:37:13;;;;;;;2.33;2.23;;;15.00;99.90;;;;;;4994585;28;20506;-70
2021/08/04 00:39:39;;;;;;;1.90;1.80;;;14.90;99.90;;;;;;4994511;28;20469;-71
2021/08/04 00:42:05;;;;;;;1.80;1.70;;;14.90;99.90;;;;;;4994535;28;20860;-71
2021/08/04 00:44:31;;;;;;;2.13;2.00;;;15.00;99.90;;;;;;4994334;28;20198;-71
2021/08/04 00:46:57;;;;;;;2.50;2.40;;;15.00;99.90;;;;;;4994524;28;20826;-71
2021/08/04 00:49:22;;;;;;;2.10;2.00;;;15.00;99.90;;;;;;4994297;28;20252;-71
2021/08/04 00:51:48;;;;;;;2.20;2.10;;;15.00;99.90;;;;;;4994365;28;20538;-70
2021/08/04 00:54:14;;;;;;;1.80;1.70;;;15.10;99.90;;;;;;4994286;28;20523;-70
2021/08/04 00:56:40;;;;;;;2.33;2.17;;;15.10;99.90;;;;;;4994318;28;20294;-71
2021/08/04 00:59:07;;;;;;;2.20;2.10;;;15.10;99.90;;;;;;4994401;28;20505;-71
2021/08/04 01:02:00;;;;;;;4.93;2.73;;;15.10;99.90;;;;;;4994499;28;20182;-71
2021/08/04 01:04:55;;;;;;;2.80;2.43;;;15.10;99.90;;;;;;4994156;28;20399;-71
2021/08/04 01:07:31;;;;;;;2.10;2.00;;;15.20;99.90;;;;;;4994265;28;20398;-71
2021/08/04 01:10:09;;;;;;;2.47;2.37;;;15.20;99.90;;;;;;4994523;28;20449;-71
2021/08/04 01:13:06;;;;;;;1.90;1.80;;;15.20;99.90;;;;;;4994070;28;20434;-70
2021/08/04 01:15:38;;;;;;;2.10;2.00;;;15.20;99.90;;;;;;4994457;28;20402;-71
2021/08/04 01:18:04;;;;;;;2.00;1.90;;;15.20;99.90;;;;;;4994255;28;20413;-71
2021/08/04 01:20:32;;;;;;;2.00;1.80;;;15.20;99.90;;;;;;4994060;28;20405;-71
2021/08/04 01:23:23;;;;;;;2.20;2.10;;;15.20;99.90;;;;;;4994122;28;20411;-71
2021/08/04 01:25:57;;;;;;;2.23;2.03;;;15.20;99.90;;;;;;4994200;28;20528;-71
2021/08/04 01:28:53;;;;;;;2.20;2.10;;;15.20;99.90;;;;;;4994078;28;20449;-71
2021/08/04 01:31:25;;;;;;;4.83;1.87;;;15.20;99.90;;;;;;4973875;28;20473;-71
2021/08/04 01:33:53;;;;;;;2.33;2.20;;;15.20;99.90;;;;;;4994113;28;20387;-71
2021/08/04 01:36:19;;;;;;;1.80;1.73;;;15.20;99.90;;;;;;4993915;28;20726;-71
2021/08/04 01:38:46;;;;;;;2.17;2.07;;;15.20;99.90;;;;;;4994024;28;20469;-71
2021/08/04 01:41:14;;;;;;;2.20;2.10;;;15.20;99.90;;;;;;4994011;28;20567;-71
2021/08/04 01:43:42;;;;;;;2.20;2.00;;;15.20;99.90;;;;;;4993973;28;20457;-70
2021/08/04 01:46:11;;;;;;;2.23;2.13;;;15.20;99.90;;;;;;4995257;28;20461;-71
2021/08/04 01:48:39;;;;;;;2.70;2.30;;;15.20;99.90;;;;;;4997452;28;20438;-70
2021/08/04 01:51:08;;;;;;;2.40;2.30;;;15.10;99.90;;;;;;4997571;28;20800;-70
2021/08/04 01:53:35;;;;;;;2.30;2.20;;;15.20;99.90;;;;;;4997460;28;20414;-71
2021/08/04 01:56:01;;;;;;;2.57;2.47;;;15.20;99.90;;;;;;4997676;28;20414;-71
2021/08/04 01:58:27;;;;;;;2.13;2.03;;;15.10;99.90;;;;;;4997340;28;20407;-71
2021/08/04 02:00:53;;;;;;;2.30;2.20;;;15.10;99.90;;;;;;4997343;28;20429;-71
2021/08/04 02:03:18;;;;;;;2.60;2.40;;;15.10;99.90;;;;;;4997274;28;20585;-71
2021/08/04 02:05:45;;;;;;;2.07;1.97;;;15.10;99.90;;;;;;4997229;28;20194;-71
2021/08/04 02:08:23;;;;;;;2.10;2.00;;;15.10;99.90;;;;;;4997354;28;20214;-71
2021/08/04 02:11:05;;;;;;;2.50;2.30;;;15.00;99.90;;;;;;4997181;28;20433;-71
2021/08/04 02:13:33;;;;;;;2.60;2.50;;;15.00;99.90;;;;;;4997159;28;20395;-71
2021/08/04 02:16:25;;;;;;;1.77;1.67;;;14.90;99.90;;;;;;4996994;28;20411;-71
2021/08/04 02:19:17;;;;;;;2.07;1.97;;;14.90;99.90;;;;;;4984715;28;20433;-70
2021/08/04 02:21:46;;;;;;;2.03;1.93;;;14.90;99.90;;;;;;4996998;28;20401;-71
2021/08/04 02:24:16;;;;;;;2.43;2.33;;;14.90;99.90;;;;;;4996815;28;20394;-71
2021/08/04 02:26:44;;;;;;;3.00;2.23;;;14.90;99.90;;;;;;4996948;28;20842;-71
2021/08/04 02:29:11;;;;;;;2.20;2.10;;;14.90;99.90;;;;;;4996881;28;20402;-70
2021/08/04 02:31:38;;;;;;;2.43;2.33;;;14.80;99.90;;;;;;4979583;28;20473;-71
2021/08/04 02:34:03;;;;;;;2.00;1.90;;;14.80;99.90;;;;;;4996973;28;20469;-71
2021/08/04 02:36:29;;;;;;;2.33;2.13;;;14.90;99.90;;;;;;4996733;28;20785;-71
2021/08/04 02:39:01;;;;;;;2.57;2.00;;;14.90;99.90;;;;;;4996834;28;20796;-71
2021/08/04 02:41:28;;;;;;;2.40;2.30;;;14.90;99.90;;;;;;4996627;28;20507;-71
2021/08/04 02:43:53;;;;;;;2.50;2.40;;;14.90;99.90;;;;;;4996593;28;20399;-71
2021/08/04 02:46:19;;;;;;;2.50;2.40;;;14.90;99.90;;;;;;4996509;28;20600;-71
2021/08/04 02:48:45;;;;;;;2.40;2.30;;;14.90;99.90;;;;;;4996441;28;20543;-71
2021/08/04 02:51:13;;;;;;;2.87;2.67;;;14.90;99.90;;;;;;4996504;28;20598;-71
2021/08/04 02:53:39;;;;;;;2.00;1.90;;;14.90;99.90;;;;;;4996451;28;20160;-71
2021/08/04 02:56:05;;;;;;;1.83;1.73;;;14.90;99.90;;;;;;4996366;28;20416;-71
2021/08/04 02:58:36;;;;;;;2.47;2.27;;;14.90;99.90;;;;;;4996064;28;20504;-71
2021/08/04 03:01:06;;;;;;;2.10;2.00;;;14.90;99.90;;;;;;4996240;28;20833;-71
2021/08/04 03:03:33;;;;;;;2.10;2.00;;;14.90;99.90;;;;;;4996261;28;20402;-71
2021/08/04 03:05:59;;;;;;;1.93;1.83;;;14.90;99.90;;;;;;4996128;28;20780;-71
2021/08/04 03:08:24;;;;;;;2.90;2.70;;;14.90;99.90;;;;;;4996181;28;20411;-71
2021/08/04 03:10:50;;;;;;;2.30;2.10;;;14.90;99.90;;;;;;4996034;28;20190;-71
2021/08/04 03:13:16;;;;;;;2.60;2.50;;;14.90;99.90;;;;;;4996295;28;20172;-70
2021/08/04 03:15:42;;;;;;;2.47;2.30;;;14.80;99.90;;;;;;4996008;28;20985;-71
2021/08/04 03:18:07;;;;;;;2.10;2.00;;;14.80;99.90;;;;;;4995981;28;20175;-71
2021/08/04 03:20:33;;;;;;;2.73;2.50;;;14.80;99.90;;;;;;4996114;28;20613;-71
2021/08/04 03:22:59;;;;;;;4.53;2.43;;;14.80;99.90;;;;;;4995888;28;20182;-71
2021/08/04 03:25:24;;;;;;;2.10;2.00;;;14.80;99.90;;;;;;4995725;28;20278;-70
2021/08/04 03:27:50;;;;;;;2.00;1.90;;;14.90;99.90;;;;;;4995798;28;20538;-71
2021/08/04 03:30:16;;;;;;;2.00;1.87;;;14.90;99.90;;;;;;4995713;28;20505;-71
2021/08/04 03:32:42;;;;;;;2.33;2.23;;;14.90;99.90;;;;;;4995704;28;20178;-71
2021/08/04 03:35:08;;;;;;;3.40;2.40;;;14.90;99.90;;;;;;4978388;28;20975;-71
2021/08/04 03:37:34;;;;;;;2.30;2.10;;;15.00;99.90;;;;;;4995595;28;20196;-71
2021/08/04 03:40:00;;;;;;;2.03;1.93;;;15.00;99.90;;;;;;4995492;28;20505;-71
2021/08/04 03:42:25;;;;;;;1.60;1.50;;;15.00;99.90;;;;;;4995534;28;20175;-71
2021/08/04 03:44:51;;;;;;;2.50;2.40;;;15.00;99.90;;;;;;4995375;28;20898;-71
2021/08/04 03:47:17;;;;;;;2.33;2.07;;;15.00;99.90;;;;;;4995426;28;20602;-71
2021/08/04 03:49:42;;;;;;;1.90;1.80;;;15.00;99.90;;;;;;4995171;28;20511;-71
2021/08/04 03:52:08;;;;;;;2.17;1.93;;;15.00;99.90;;;;;;4995336;28;20181;-71
2021/08/04 03:54:34;;;;;;;2.40;2.20;;;15.00;99.90;;;;;;4995264;28;20252;-70
2021/08/04 03:56:59;;;;;;;2.50;2.33;;;15.00;99.90;;;;;;4995256;28;20203;-71
2021/08/04 03:59:25;;;;;;;2.63;2.43;;;14.90;99.90;;;;;;4995169;28;20167;-71
2021/08/04 04:01:50;;;;;;;2.60;2.30;;;14.90;99.90;;;;;;4995100;28;20198;-71
2021/08/04 04:04:16;;;;;;;2.33;2.23;;;14.90;99.90;;;;;;4995049;28;20178;-71
2021/08/04 04:06:42;;;;;;;1.90;1.80;;;14.80;99.90;;;;;;4995023;28;20229;-71
2021/08/04 04:09:08;;;;;;;1.83;1.73;;;14.80;99.90;;;;;;4994409;28;20199;-71
2021/08/04 04:11:35;;;;;;;2.00;1.90;;;14.90;99.90;;;;;;4994920;28;20179;-71
2021/08/04 04:14:01;;;;;;;2.20;2.10;;;14.90;99.90;;;;;;4994938;28;20255;-71
2021/08/04 04:16:27;;;;;;;1.93;1.83;;;14.90;99.90;;;;;;4994873;28;20419;-71
2021/08/04 04:18:52;;;;;;;2.67;2.47;;;14.90;99.90;;;;;;4994897;28;20167;-71
2021/08/04 04:21:18;;;;;;;3.40;2.40;;;15.00;99.90;;;;;;4994732;28;20594;-71
2021/08/04 04:23:43;;;;;;;1.93;1.83;;;15.00;99.90;;;;;;4994671;28;20756;-71
2021/08/04 04:26:09;;;;;;;4.07;2.17;;;15.00;99.90;;;;;;4994641;28;20187;-71
2021/08/04 04:28:35;;;;;;;2.27;2.07;;;15.00;99.90;;;;;;4994715;28;20172;-71
2021/08/04 04:31:00;;;;;;;2.07;1.87;;;15.10;99.90;;;;;;4994587;28;20206;-71
2021/08/04 04:33:26;;;;;;;1.90;1.80;;;15.10;99.90;;;;;;4994666;28;20191;-71
2021/08/04 04:35:52;;;;;;;2.27;2.17;;;15.20;99.90;;;;;;4994365;28;20178;-71
2021/08/04 04:38:18;;;;;;;1.67;1.57;;;15.20;99.90;;;;;;4994603;28;20174;-71
2021/08/04 04:40:43;;;;;;;2.00;1.90;;;15.20;99.90;;;;;;4994442;28;20492;-71
2021/08/04 04:43:09;;;;;;;2.37;2.17;;;15.20;99.90;;;;;;4994543;28;20174;-71
2021/08/04 04:45:35;;;;;;;2.00;1.80;;;15.30;99.90;;;;;;4994417;28;20217;-71
2021/08/04 04:48:00;;;;;;;2.90;2.13;;;15.30;99.90;;;;;;4994384;28;20171;-71
2021/08/04 04:50:26;;;;;;;1.90;1.80;;;15.40;99.90;;;;;;4994459;28;20155;-71
2021/08/04 04:52:51;;;;;;;2.10;1.90;;;15.40;99.90;;;;;;4994365;28;20199;-71
2021/08/04 04:55:17;;;;;;;1.93;1.83;;;15.40;99.90;;;;;;4994356;28;20218;-71
2021/08/04 04:57:43;;;;;;;3.83;2.37;;;15.40;99.90;;;;;;4994354;28;20249;-71
2021/08/04 05:00:10;;;;;;;2.30;2.10;;;15.40;99.90;;;;;;4994396;28;20203;-71
2021/08/04 05:02:39;;;;;;;2.10;1.90;;;15.40;99.90;;;;;;4994679;28;20167;-71
2021/08/04 05:05:06;;;;;;;2.60;2.40;;;15.50;99.90;;;;;;4994341;28;20505;-72
2021/08/04 05:07:32;;;;;;;1.80;1.70;;;15.50;99.90;;;;;;4994291;28;20402;-71
2021/08/04 05:09:57;;;;;;;2.60;2.20;;;15.50;99.90;;;;;;4994287;28;20705;-71
2021/08/04 05:12:23;;;;;;;2.73;2.53;;;15.50;99.90;;;;;;4994231;28;20403;-71
2021/08/04 05:14:49;;;;;;;2.57;2.47;;;15.50;99.90;;;;;;4994211;28;20558;-71
2021/08/04 05:17:14;;;;;;;2.20;2.10;;;15.60;99.90;;;;;;4994193;28;20175;-71
2021/08/04 05:19:41;;;;;;;2.53;2.00;;;15.50;99.90;;;;;;4994782;28;20250;-71
2021/08/04 05:22:07;;;;;;;4.43;2.50;;;15.60;99.90;;;;;;4998389;28;20186;-71
2021/08/04 05:24:33;;;;;;;5.37;2.40;;;15.60;99.90;;;;;;4997961;28;20442;-71
2021/08/04 05:26:58;;;;;;;2.13;2.03;;;15.70;99.90;;;;;;4998033;28;20460;-71
2021/08/04 05:29:24;;;;;;;2.03;1.93;;;15.70;99.90;;;;;;4997952;28;20258;-72
2021/08/04 05:31:50;;;;;;;2.60;2.50;;;15.70;99.90;;;;;;4997905;28;20218;-71
2021/08/04 05:34:17;;;;;;;2.23;2.03;;;15.70;99.90;;;;;;4997888;28;20175;-70
2021/08/04 05:36:43;;;;;;;2.30;2.10;;;15.70;99.90;;;;;;4997794;28;20172;-71
2021/08/04 05:39:09;;;;;;;2.13;1.90;;;15.70;99.90;;;;;;4997763;28;20402;-71
2021/08/04 05:41:34;;;;;;;2.50;2.30;;;15.70;99.90;;;;;;4997727;28;20983;-71
2021/08/04 05:44:00;;;;;;;1.90;1.80;;;15.80;99.90;;;;;;4997719;28;20214;-71
2021/08/04 05:46:26;;;;;;;2.57;2.47;;;15.80;99.90;;;;;;4997544;28;20187;-71
2021/08/04 05:48:52;;;;;;;2.30;2.10;;;15.80;99.90;;;;;;4997530;28;20186;-70
2021/08/04 05:51:17;;;;;;;2.27;2.17;;;15.90;99.90;;;;;;4997581;28;20647;-71
2021/08/04 05:53:43;;;;;;;2.10;2.00;;;15.90;99.90;;;;;;4997558;28;20558;-71
2021/08/04 05:56:09;;;;;;;2.87;2.67;;;15.90;99.90;;;;;;4997438;28;20176;-71
2021/08/04 05:58:34;;;;;;;2.13;2.00;;;16.00;99.90;;;;;;4997698;28;20238;-71
2021/08/04 06:01:01;;;;;;;4.80;2.20;;;16.00;99.90;;;;;;4997541;28;20199;-71
2021/08/04 06:03:27;;;;;;;3.30;2.33;;;16.00;99.90;;;;;;4997404;28;20796;-71
2021/08/04 06:05:52;;;;;;;2.97;2.43;;;16.10;99.90;;;;;;4997206;28;20641;-71
2021/08/04 06:08:18;;;;;;;2.93;2.73;;;16.10;99.90;;;;;;4997576;28;20167;-71
2021/08/04 06:10:43;;;;;;;2.50;2.30;;;16.20;99.90;;;;;;4997207;28;20186;-71
2021/08/04 06:13:09;;;;;;;3.30;2.30;;;16.20;99.90;;;;;;4997282;28;20174;-71
2021/08/04 06:15:35;;;;;;;3.00;2.80;;;16.30;99.90;;;;;;4997360;28;20183;-71
2021/08/04 06:18:00;;;;;;;2.50;2.27;;;16.30;99.90;;;;;;4997188;28;20188;-71
2021/08/04 06:20:26;;;;;;;2.90;2.80;;;16.40;99.90;;;;;;4997071;28;20609;-71
2021/08/04 06:22:52;;;;;;;2.80;2.60;;;16.30;99.90;;;;;;4996988;28;20267;-71
2021/08/04 06:25:17;;;;;;;3.10;2.20;;;16.40;99.90;;;;;;4997179;28;20211;-71
2021/08/04 06:27:43;;;;;;;3.27;3.00;;;16.40;99.90;;;;;;4996876;28;20163;-73
2021/08/04 06:30:09;;;;;;;2.80;2.60;;;16.50;99.90;;;;;;4997164;28;20664;-71
2021/08/04 06:32:35;;;;;;;3.23;2.93;;;16.50;99.90;;;;;;4996134;28;20171;-72
2021/08/04 06:35:00;;;;;;;2.60;2.50;;;16.60;99.90;;;;;;4997041;28;20230;-71
2021/08/04 06:37:26;;;;;;;2.53;2.40;;;16.70;99.90;;;;;;4996915;28;20199;-72
2021/08/04 06:39:51;;;;;;;2.60;2.50;;;16.70;99.90;;;;;;4997131;28;20179;-71
2021/08/04 06:42:18;;;;;;;2.73;2.53;;;16.80;99.90;;;;;;4996761;28;20211;-71
2021/08/04 06:44:43;;;;;;;2.77;2.57;;;16.80;99.90;;;;;;4996733;28;20195;-71
2021/08/04 06:47:09;;;;;;;3.07;2.87;;;16.90;99.90;;;;;;4996775;28;20788;-72
2021/08/04 06:49:35;;;;;;;2.40;2.30;;;17.00;99.90;;;;;;4996572;28;20183;-71
2021/08/04 07:02:07;;;;;;;2.70;2.07;;;17.40;99.90;;;;;;4996242;28;20397;-71
2021/08/04 07:04:32;;;;;;;3.27;2.30;;;17.40;99.90;;;;;;4995875;28;20402;-71
2021/08/04 07:07:03;;;;;;;3.87;2.10;;;17.50;99.90;;;;;;4996200;28;20163;-71
2021/08/04 07:09:31;;;;;;;2.60;2.40;;;17.50;99.90;;;;;;4996433;28;20565;-71
2021/08/04 07:11:56;;;;;;;2.40;2.23;;;17.60;99.90;;;;;;4996153;28;20410;-71
2021/08/04 07:14:22;;;;;;;2.10;1.90;;;17.70;99.90;;;;;;4979038;28;20402;-71
2021/08/04 07:16:48;;;;;;;1.90;1.77;;;17.70;99.90;;;;;;4995940;28;20198;-71
2021/08/04 07:19:14;;;;;;;2.87;2.30;;;17.80;99.90;;;;;;4996055;28;20250;-71
2021/08/04 07:21:41;;;;;;;2.13;1.90;;;17.80;99.90;;;;;;4996010;28;20413;-71
2021/08/04 07:24:08;;;;;;;2.17;1.90;;;17.90;99.90;;;;;;4995985;28;20406;-71
2021/08/04 07:26:36;;;;;;;3.43;1.90;;;17.80;99.90;;;;;;4995724;28;20516;-71
2021/08/04 07:29:02;;;;;;;2.40;2.30;;;17.80;99.90;;;;;;4995906;28;20407;-71
2021/08/04 07:31:28;;;;;;;6.03;2.60;;;17.80;99.90;;;;;;4995841;28;20394;-71
2021/08/04 07:33:54;;;;;;;2.00;1.90;;;17.90;99.90;;;;;;4995777;28;20903;-71
2021/08/04 07:36:20;;;;;;;5.27;2.47;;;17.90;99.90;;;;;;4995633;28;20608;-71
2021/08/04 07:38:45;;;;;;;2.60;2.27;;;17.90;99.90;;;;;;4995676;28;20186;-71
2021/08/04 07:41:11;;;;;;;2.37;2.17;;;17.90;99.90;;;;;;4995635;28;20172;-71
2021/08/04 07:43:37;;;;;;;2.33;2.13;;;17.90;99.90;;;;;;4994626;28;20213;-71
2021/08/04 07:46:03;;;;;;;2.60;2.40;;;17.90;99.90;;;;;;4995343;28;20450;-71
2021/08/04 07:48:29;;;;;;;2.23;2.13;;;17.90;99.90;;;;;;4995218;28;20187;-71
2021/08/04 07:50:55;;;;;;;4.63;2.50;;;17.90;99.90;;;;;;4995313;28;20183;-71
2021/08/04 07:53:22;;;;;;;2.70;2.50;;;17.90;99.90;;;;;;4994972;28;20168;-71
2021/08/04 07:55:47;;;;;;;3.13;1.97;;;18.00;99.90;;;;;;4995323;28;20488;-71
2021/08/04 07:58:13;;;;;;;2.40;2.27;;;18.00;99.90;;;;;;4995495;28;20406;-71
2021/08/04 08:00:39;;;;;;;2.23;2.13;;;18.10;99.90;;;;;;4994390;28;20213;-71
2021/08/04 08:03:05;;;;;;;3.20;2.30;;;18.20;99.90;;;;;;4995131;28;20500;-71
2021/08/04 08:05:31;;;;;;;2.87;2.13;;;18.30;99.90;;;;;;4994940;28;20192;-71
2021/08/04 08:08:03;;;;;;;2.70;2.30;;;18.40;99.90;;;;;;4995143;28;20488;-71
2021/08/04 08:10:29;;;;;;;3.27;1.97;;;18.50;99.90;;;;;;4995055;28;20152;-71
2021/08/04 08:12:55;;;;;;;2.50;1.87;;;18.50;99.90;;;;;;4994984;28;20399;-71
2021/08/04 08:15:21;;;;;;;2.50;2.30;;;18.50;99.90;;;;;;4994800;28;20403;-71
2021/08/04 08:17:46;;;;;;;3.67;2.43;;;18.60;99.90;;;;;;4994976;28;20250;-71
2021/08/04 08:20:12;;;;;;;2.60;2.07;;;18.60;99.90;;;;;;4995054;28;20602;-71
2021/08/04 08:22:38;;;;;;;5.97;2.00;;;18.80;99.90;;;;;;4995054;28;20183;-71
2021/08/04 08:25:06;;;;;;;2.50;2.30;;;18.90;99.90;;;;;;4994535;28;20446;-71
2021/08/04 08:27:32;;;;;;;1.73;1.63;;;19.00;99.90;;;;;;4994810;28;20434;-71
2021/08/04 08:29:58;;;;;;;2.30;2.20;;;19.10;99.90;;;;;;4994658;28;20493;-71
2021/08/04 08:32:26;;;;;;;2.67;2.43;;;19.20;99.90;;;;;;4994704;28;20497;-71
2021/08/04 08:34:52;;;;;;;2.53;2.33;;;19.30;99.90;;;;;;4994941;28;20259;-71
2021/08/04 08:37:18;;;;;;;2.40;2.20;;;19.40;99.90;;;;;;4994613;28;20418;-71
2021/08/04 08:39:44;;;;;;;2.60;2.40;;;19.50;99.90;;;;;;4994546;28;20875;-71
2021/08/04 08:42:10;;;;;;;2.10;2.00;;;19.60;99.90;;;;;;4994618;28;20163;-71
2021/08/04 08:44:36;;;;;;;2.03;1.93;;;19.70;99.90;;;;;;4994370;28;20164;-71
2021/08/04 08:47:10;;;;;;;3.93;1.73;;;19.80;99.90;;;;;;4994565;28;20171;-71
2021/08/04 08:49:37;;;;;;;1.87;1.77;;;20.00;99.90;;;;;;4993213;28;20425;-71
2021/08/04 08:52:04;;;;;;;2.53;2.33;;;20.20;99.90;;;;;;4993661;28;20927;-71
2021/08/04 08:54:29;;;;;;;2.30;1.70;;;20.30;99.90;;;;;;4994031;28;21015;-71
2021/08/04 08:59:32;;;;;;;2.20;2.00;;;20.50;99.90;;;;;;1449452;26;20272;-82
2021/08/04 09:01:58;;;;;;;3.40;2.30;;;20.50;99.90;;;;;;5013281;28;20822;-81
2021/08/04 09:04:23;;;;;;;1.90;1.80;;;20.50;99.90;;;;;;4996661;28;20166;-82
2021/08/04 09:06:59;;;;;;;1.70;1.60;;;20.60;99.90;;;;;;5013786;28;20207;-82
2021/08/04 09:09:30;;;;;;;1.90;1.80;;;20.70;99.90;;;;;;5014320;28;20146;-82
2021/08/04 09:12:08;;;;;;;1.93;1.83;;;20.80;99.90;;;;;;4996667;28;20751;-81
2021/08/04 09:14:36;;;;;;;3.67;2.13;;;21.00;99.90;;;;;;5012851;28;20475;-82
2021/08/04 09:23:54;;;;;;;2.20;2.00;;;21.50;99.90;;;;;;5014509;28;20385;-82
2021/08/04 09:26:27;;;;;;;2.80;2.60;;;21.80;99.90;;;;;;5013124;28;20487;-82
2021/08/04 09:28:56;;;;;;;1.80;1.70;;;21.90;99.90;;;;;;5012449;28;20469;-82
2021/08/04 09:31:38;;;;;;;2.10;2.00;;;21.90;99.90;;;;;;5012762;28;20405;-82
2021/08/04 09:34:05;;;;;;;1.60;1.50;;;22.00;99.90;;;;;;5013780;28;20928;-82
2021/08/04 09:36:31;;;;;;;1.97;1.53;;;22.10;99.90;;;;;;5012785;28;20429;-82
2021/08/04 09:39:02;;;;;;;1.43;1.33;;;22.10;99.90;;;;;;5013694;28;20425;-82
2021/08/04 09:41:28;;;;;;;1.83;1.30;;;22.00;99.90;;;;;;5013591;28;20171;-82
2021/08/04 09:44:07;;;;;;;1.70;1.60;;;21.80;99.90;;;;;;5013712;28;20437;-82
2021/08/04 09:46:33;;;;;;;2.40;1.27;;;21.80;99.90;;;;;;5013666;28;20627;-82
2021/08/04 09:49:19;;;;;;;1.67;1.40;;;21.80;99.90;;;;;;5012549;28;20453;-82
2021/08/04 09:51:47;;;;;;;1.70;1.60;;;21.80;99.90;;;;;;5013321;28;20422;-82
2021/08/04 09:54:14;;;;;;;2.13;1.60;;;21.90;99.90;;;;;;5013529;28;20487;-82
2021/08/04 09:56:56;;;;;;;2.00;1.57;;;22.10;99.90;;;;;;5013572;28;20480;-82
2021/08/04 09:59:23;;;;;;;1.63;1.53;;;22.10;99.90;;;;;;5012406;28;20417;-82
2021/08/04 10:01:49;;;;;;;1.93;1.50;;;22.00;99.90;;;;;;5012540;28;20406;-82
2021/08/04 10:04:15;;;;;;;1.70;1.60;;;22.10;99.90;;;;;;5013536;28;20501;-82
2021/08/04 10:06:43;;;;;;;1.60;1.50;;;22.20;99.90;;;;;;5013988;28;20244;-82
2021/08/04 10:09:11;;;;;;;1.77;1.67;;;22.20;99.90;;;;;;5016912;28;20413;-82
2021/08/04 10:11:43;;;;;;;1.70;1.60;;;22.20;99.90;;;;;;5016020;28;20792;-82
2021/08/04 10:14:13;;;;;;;1.70;1.60;;;22.00;99.90;;;;;;5016995;28;20939;-82
2021/08/04 10:16:39;;;;;;;2.00;1.90;;;22.00;99.90;;;;;;5017049;28;20500;-82
2021/08/04 10:19:06;;;;;;;1.80;1.70;;;22.10;99.90;;;;;;4999450;28;20895;-82
2021/08/04 10:21:34;;;;;;;2.13;1.93;;;22.00;99.90;;;;;;4999505;28;20417;-82
2021/08/04 10:24:01;;;;;;;1.70;1.60;;;22.00;99.90;;;;;;5016720;28;20744;-82
2021/08/04 10:26:27;;;;;;;1.93;1.73;;;21.80;99.90;;;;;;5016464;28;20477;-82
2021/08/04 10:28:57;;;;;;;3.20;1.93;;;21.80;99.90;;;;;;5016634;28;20410;-82
2021/08/04 10:31:23;;;;;;;3.60;1.60;;;22.00;99.90;;;;;;4999248;28;20889;-82
2021/08/04 10:33:49;;;;;;;1.43;1.33;;;22.00;99.90;;;;;;5016572;28;20740;-82
2021/08/04 10:36:18;;;;;;;3.00;1.50;;;21.80;99.90;;;;;;4999332;28;20887;-82
2021/08/04 10:38:49;;;;;;;4.40;1.80;;;21.90;99.90;;;;;;5014149;28;20472;-82
2021/08/04 10:41:26;;;;;;;1.90;1.80;;;21.90;99.90;;;;;;4999027;28;20414;-82
2021/08/04 10:43:55;;;;;;;1.80;1.70;;;22.00;99.90;;;;;;5016440;28;20406;-82
2021/08/04 10:46:33;;;;;;;2.07;1.87;;;22.10;99.90;;;;;;5000078;28;20466;-82
2021/08/04 10:49:04;;;;;;;1.70;1.60;;;22.20;99.90;;;;;;4996686;28;20808;-82
2021/08/04 10:51:37;;;;;;;2.17;2.00;;;22.30;99.90;;;;;;4996678;28;20415;-82
2021/08/04 10:54:03;;;;;;;2.40;2.30;;;22.40;99.90;;;;;;4996661;28;20494;-82
2021/08/04 10:56:31;;;;;;;1.70;1.60;;;22.30;99.90;;;;;;4979229;28;20525;-82
2021/08/04 10:59:09;;;;;;;2.17;1.97;;;22.20;99.90;;;;;;4979248;28;20250;-82
2021/08/04 11:01:45;;;;;;;1.93;1.70;;;22.20;99.90;;;;;;4979306;28;20493;-82
2021/08/04 11:04:15;;;;;;;5.30;2.10;;;22.40;99.90;;;;;;4996398;28;20843;-82
2021/08/04 11:07:30;;;;;;;3.63;2.00;;;22.40;99.90;;;;;;4996594;28;20740;-82
2021/08/04 11:09:57;;;;;;;2.33;2.10;;;22.50;99.90;;;;;;4995725;28;20429;-82
2021/08/04 11:12:43;;;;;;;2.23;2.13;;;22.30;99.90;;;;;;4996183;28;20430;-82
2021/08/04 11:15:19;;;;;;;6.70;2.27;;;22.20;99.90;;;;;;4996040;28;20414;-82
2021/08/04 11:18:13;;;;;;;1.67;1.57;;;22.30;99.90;;;;;;4979265;28;20407;-82
2021/08/04 11:20:59;;;;;;;1.70;1.60;;;22.30;99.90;;;;;;4996308;28;20777;-82
2021/08/04 11:23:48;;;;;;;2.37;2.17;;;22.50;99.90;;;;;;4995882;28;20482;-82
2021/08/04 11:26:25;;;;;;;2.50;2.00;;;22.70;99.90;;;;;;4978864;28;20453;-82
2021/08/04 11:28:52;;;;;;;4.07;2.30;;;22.60;99.90;;;;;;4978843;28;20469;-82
2021/08/04 11:31:19;;;;;;;3.13;2.93;;;22.70;99.90;;;;;;4978917;28;20880;-82
2021/08/04 11:33:45;;;;;;;3.80;3.50;;;22.60;99.90;;;;;;4996199;28;20865;-82
2021/08/04 11:36:28;;;;;;;3.40;1.80;;;22.50;99.90;;;;;;4995620;28;20436;-82
2021/08/04 11:38:57;;;;;;;2.10;2.00;;;22.40;99.90;;;;;;4978790;28;20915;-82
2021/08/04 11:41:31;;;;;;;2.20;2.00;;;22.50;99.90;;;;;;4978324;28;20457;-82
2021/08/04 11:44:18;;;;;;;2.20;2.00;;;22.40;99.90;;;;;;4995666;28;20457;-82
2021/08/04 11:47:05;;;;;;;2.33;2.13;;;22.40;99.90;;;;;;4995454;28;20438;-81
2021/08/04 11:49:42;;;;;;;2.07;1.90;;;22.40;99.90;;;;;;4978269;28;20406;-81
2021/08/04 11:52:18;;;;;;;3.67;2.43;;;22.30;99.90;;;;;;4978420;28;20430;-82
2021/08/04 11:54:51;;;;;;;2.23;2.03;;;22.40;99.90;;;;;;4995497;28;20460;-81
2021/08/04 11:57:32;;;;;;;2.60;2.50;;;22.30;99.90;;;;;;4995420;28;20391;-82
2021/08/04 12:00:04;;;;;;;3.83;2.40;;;22.40;99.90;;;;;;4995260;28;20613;-82
2021/08/04 12:02:32;;;;;;;2.17;2.00;;;22.40;99.90;;;;;;4995254;28;20480;-81
2021/08/04 12:04:58;;;;;;;1.90;1.80;;;22.40;99.90;;;;;;4995153;28;20450;-81
2021/08/04 12:07:30;;;;;;;5.40;2.80;;;22.40;99.90;;;;;;4995162;28;20434;-82
2021/08/04 12:09:57;;;;;;;3.00;2.80;;;22.50;99.90;;;;;;4995130;28;20771;-81
2021/08/04 12:12:31;;;;;;;3.30;2.20;;;22.60;99.90;;;;;;4977963;28;20884;-82
2021/08/04 12:14:57;;;;;;;2.00;1.90;;;22.60;99.90;;;;;;4995139;28;20406;-81
2021/08/04 12:17:32;;;;;;;2.67;1.80;;;22.70;99.90;;;;;;4994914;28;20414;-81
2021/08/04 12:20:14;;;;;;;2.27;2.17;;;22.50;99.90;;;;;;4994899;28;20403;-81
2021/08/04 12:22:41;;;;;;;3.70;2.43;;;22.60;99.90;;;;;;4995100;28;20403;-82
2021/08/04 12:25:07;;;;;;;2.30;2.20;;;22.70;99.90;;;;;;4994815;28;20472;-82
2021/08/04 12:27:35;;;;;;;2.20;2.10;;;22.80;99.90;;;;;;4994800;28;20410;-81
2021/08/04 12:30:13;;;;;;;1.93;1.83;;;22.90;99.90;;;;;;4994165;28;20430;-82
2021/08/04 12:33:03;;;;;;;2.07;1.97;;;23.30;99.90;;;;;;4994413;28;20438;-82
2021/08/04 12:35:37;;;;;;;2.00;1.90;;;23.80;99.90;;;;;;4994571;28;20410;-82
2021/08/04 12:38:09;;;;;;;1.80;1.70;;;24.30;99.90;;;;;;4977533;28;20817;-82
2021/08/04 12:40:36;;;;;;;2.27;2.17;;;24.90;99.90;;;;;;4994402;28;20416;-83
2021/08/04 12:43:02;;;;;;;2.33;2.13;;;25.10;99.90;;;;;;4994853;28;20403;-82
2021/08/04 12:45:29;;;;;;;3.00;2.60;;;24.90;99.90;;;;;;4994490;28;20445;-82
2021/08/04 12:48:00;;;;;;;2.17;2.07;;;24.90;99.90;;;;;;4994577;28;20412;-82
2021/08/04 12:50:50;;;;;;;3.53;1.80;;;25.20;99.90;;;;;;4994456;28;20502;-83
2021/08/04 12:53:26;;;;;;;2.07;1.87;;;25.60;99.90;;;;;;4994554;28;20395;-82
2021/08/04 12:56:04;;;;;;;2.73;2.33;;;25.50;99.90;;;;;;4994465;28;20406;-82
2021/08/04 12:58:49;;;;;;;2.23;2.13;;;25.00;99.90;;;;;;4994232;28;20449;-82
2021/08/04 13:01:20;;;;;;;2.20;1.80;;;24.80;99.90;;;;;;4994049;28;20430;-82
2021/08/04 13:03:47;;;;;;;2.00;1.70;;;24.60;99.90;;;;;;4994353;28;20752;-82
2021/08/04 13:06:13;;;;;;;3.33;2.17;;;24.40;99.90;;;;;;4977011;28;20454;-82
2021/08/04 13:08:38;;;;;;;6.73;2.43;;;23.90;99.90;;;;;;4994363;28;20951;-82
2021/08/04 13:11:04;;;;;;;3.47;2.03;;;23.80;99.90;;;;;;4994382;28;20171;-82
2021/08/04 13:14:00;;;;;;;1.70;1.60;;;23.60;99.90;;;;;;4994358;28;20170;-82
2021/08/04 13:16:36;;;;;;;2.20;2.10;;;23.30;99.90;;;;;;4994302;28;20414;-82